Time;durP1;ratioP1;P1;durP2;ratioP2;P2;SDS_P1;SDS_P2;PMS_P1;PMS_P2;Temp;Humidity;BMP_temperature;BMP_pressure;BME280_temperature;BME280_humidity;BME280_pressure;Samples;Min_cycle;Max_cycle;Signal;HPM_P1;HPM_P2
2024/03/19 00:10:01;;;;;;;10.48;1.67;;;;;;;10.26;100.00;99219.50;4704615;30;20211;-90
2024/03/19 00:21:11;;;;;;;8.13;1.40;;;;;;;9.96;100.00;99232.50;4699059;30;20733;-90
2024/03/19 00:23:59;;;;;;;13.13;1.83;;;;;;;9.94;100.00;99245.88;4686402;30;20052;-92
2024/03/19 00:26:28;;;;;;;6.38;1.05;;;;;;;9.91;100.00;99254.97;4720337;30;20075;-92
2024/03/19 00:28:56;;;;;;;10.50;1.30;;;;;;;9.84;100.00;99254.00;4765146;29;20058;-91
2024/03/19 00:31:25;;;;;;;7.82;1.10;;;;;;;9.83;100.00;99268.16;4785454;29;20132;-91
2024/03/19 00:34:15;;;;;;;9.90;0.90;;;;;;;9.82;100.00;99252.50;4843734;29;20157;-90
2024/03/19 00:37:13;;;;;;;7.47;1.20;;;;;;;9.77;100.00;99276.75;4833961;29;20511;-92
2024/03/19 00:40:04;;;;;;;;;;;;;;;;;;;;;
2024/03/19 00:42:51;;;;;;;7.57;0.82;;;;;;;9.74;100.00;99272.66;4834797;29;20492;-91
2024/03/19 00:45:26;;;;;;;9.20;1.42;;;;;;;9.70;100.00;99286.34;4834450;29;20073;-89
2024/03/19 00:48:00;;;;;;;8.48;1.02;;;;;;;9.71;100.00;99293.25;4859559;29;20048;-90
2024/03/19 00:50:27;;;;;;;7.82;1.00;;;;;;;9.70;100.00;99289.00;4878946;29;20044;-88
2024/03/19 00:52:59;;;;;;;8.25;1.02;;;;;;;9.63;100.00;99288.81;4861393;29;20049;-90
2024/03/19 00:55:28;;;;;;;14.82;2.78;;;;;;;9.63;100.00;99292.28;4872005;29;20134;-90
2024/03/19 00:57:59;;;;;;;9.70;1.17;;;;;;;9.65;100.00;99308.75;4861459;29;20048;-91
2024/03/19 01:00:32;;;;;;;12.85;1.52;;;;;;;9.67;100.00;99309.44;4856507;29;20045;-90
2024/03/19 01:03:09;;;;;;;12.55;1.90;;;;;;;9.65;100.00;99306.13;4863304;29;20079;-91
2024/03/19 01:05:38;;;;;;;8.45;1.10;;;;;;;9.66;100.00;99320.16;4872253;29;20127;-90
2024/03/19 01:08:10;;;;;;;8.20;1.15;;;;;;;9.63;100.00;99316.03;4852736;29;20092;-93
2024/03/19 01:10:36;;;;;;;5.82;1.10;;;;;;;9.57;100.00;99321.16;4849144;29;20037;-92
2024/03/19 01:13:05;;;;;;;5.95;1.02;;;;;;;9.61;100.00;99333.00;4851342;29;20043;-91
2024/03/19 01:15:31;;;;;;;12.77;1.73;;;;;;;9.53;100.00;99341.75;4867703;29;20036;-91
2024/03/19 01:17:57;;;;;;;9.45;1.30;;;;;;;9.55;100.00;99345.06;4865132;29;20025;-91
2024/03/19 01:20:26;;;;;;;8.32;1.00;;;;;;;9.53;100.00;99339.94;4880630;29;20476;-90
2024/03/19 01:22:59;;;;;;;10.45;1.75;;;;;;;9.57;100.00;99340.44;4852165;29;20495;-91
2024/03/19 01:28:28;;;;;;;9.73;1.60;;;;;;;9.54;100.00;99354.78;4868544;29;20303;-93
2024/03/19 01:30:56;;;;;;;12.32;1.95;;;;;;;9.50;100.00;99358.75;4853071;29;20025;-91
2024/03/19 01:33:49;;;;;;;9.80;1.20;;;;;;;9.49;100.00;99359.72;4866847;29;20488;-91
2024/03/19 01:36:38;;;;;;;11.77;1.55;;;;;;;9.49;100.00;99358.91;4866141;29;20046;-91
2024/03/19 01:39:28;;;;;;;9.00;1.10;;;;;;;9.44;100.00;99377.88;4864405;29;20064;-92
2024/03/19 01:42:26;;;;;;;9.68;1.17;;;;;;;9.46;100.00;99386.41;4854775;29;20056;-91
2024/03/19 01:45:11;;;;;;;12.05;0.95;;;;;;;9.51;100.00;99392.03;4867563;29;20036;-90
2024/03/19 01:47:47;;;;;;;13.98;1.30;;;;;;;9.47;100.00;99382.81;4850531;29;20044;-91
2024/03/19 01:50:20;;;;;;;10.50;1.70;;;;;;;9.50;100.00;99385.13;4872581;29;20055;-92
2024/03/19 01:52:54;;;;;;;13.15;1.15;;;;;;;9.56;100.00;99404.72;4865118;29;20049;-92
2024/03/19 01:55:32;;;;;;;10.18;1.67;;;;;;;9.52;100.00;99398.16;4865737;29;20045;-91
2024/03/19 01:58:12;;;;;;;7.05;1.15;;;;;;;9.47;100.00;99392.53;4854364;29;20510;-91
2024/03/19 02:00:40;;;;;;;8.73;1.20;;;;;;;9.47;100.00;99400.44;4854172;29;20044;-92
2024/03/19 02:03:13;;;;;;;7.35;0.98;;;;;;;9.48;100.00;99402.91;4863791;29;20028;-91
2024/03/19 02:05:51;;;;;;;10.60;2.00;;;;;;;9.46;100.00;99404.06;4878624;29;20483;-92
2024/03/19 02:08:17;;;;;;;15.00;1.83;;;;;;;9.41;100.00;99415.13;4846795;29;20045;-90
2024/03/19 02:10:49;;;;;;;10.80;1.45;;;;;;;9.43;100.00;99402.56;4870366;29;20080;-91
2024/03/19 02:13:15;;;;;;;6.85;1.17;;;;;;;9.43;100.00;99421.03;4859987;29;20040;-91
2024/03/19 02:15:50;;;;;;;6.88;1.10;;;;;;;9.42;100.00;99420.22;4863157;29;20049;-91
2024/03/19 02:18:37;;;;;;;7.90;1.42;;;;;;;9.36;100.00;99414.78;4861375;29;20045;-91
2024/03/19 02:21:03;;;;;;;8.57;1.05;;;;;;;9.35;100.00;99421.03;4845625;29;20037;-91
2024/03/19 02:23:32;;;;;;;8.90;1.35;;;;;;;9.34;100.00;99429.91;4863325;29;20056;-91
2024/03/19 02:26:04;;;;;;;11.45;1.20;;;;;;;9.32;100.00;99430.09;4854147;29;20041;-91
2024/03/19 02:28:37;;;;;;;6.88;0.93;;;;;;;9.30;100.00;99440.78;4861248;29;20100;-91
2024/03/19 02:31:04;;;;;;;7.85;1.08;;;;;;;9.24;100.00;99451.97;4849956;29;20177;-90
2024/03/19 02:33:49;;;;;;;;;;;;;;;;;;;;;
2024/03/19 02:36:25;;;;;;;7.35;0.93;;;;;;;9.20;100.00;99466.47;4862520;29;20049;-91
2024/03/19 02:39:00;;;;;;;8.25;1.05;;;;;;;9.18;100.00;99471.09;4841954;29;20453;-91
2024/03/19 02:41:50;;;;;;;4.07;1.00;;;;;;;9.22;100.00;99479.50;4855833;29;20136;-91
2024/03/19 02:44:24;;;;;;;8.30;1.20;;;;;;;9.20;100.00;99478.84;4859375;29;20076;-92
2024/03/19 02:47:18;;;;;;;7.43;1.20;;;;;;;9.24;100.00;99483.63;4864383;29;20067;-91
2024/03/19 02:49:59;;;;;;;9.82;1.10;;;;;;;9.20;100.00;99476.19;4902976;29;20510;-91
2024/03/19 02:52:46;;;;;;;11.50;1.83;;;;;;;9.26;100.00;99478.19;4869667;29;20116;-94
2024/03/19 02:55:39;;;;;;;11.18;1.45;;;;;;;9.16;100.00;99475.69;4857355;29;20045;-93
2024/03/19 02:58:14;;;;;;;13.20;1.88;;;;;;;9.19;100.00;99480.63;4858490;29;20052;-92
2024/03/19 03:00:53;;;;;;;6.65;1.52;;;;;;;9.14;100.00;99470.56;4854007;29;20071;-92
2024/03/19 03:03:22;;;;;;;12.05;2.25;;;;;;;9.18;100.00;99479.81;4846183;29;20053;-92
2024/03/19 03:05:53;;;;;;;16.48;2.20;;;;;;;9.23;100.00;99497.81;4860130;29;20036;-93
2024/03/19 03:08:27;;;;;;;11.95;1.67;;;;;;;9.22;100.00;99490.84;4863674;29;20088;-92
2024/03/19 03:10:57;;;;;;;17.70;2.67;;;;;;;9.26;100.00;99496.66;4880442;29;20052;-93
2024/03/19 03:13:32;;;;;;;16.98;2.90;;;;;;;9.21;100.00;99504.19;4848678;29;20084;-91
2024/03/19 03:16:05;;;;;;;13.55;2.80;;;;;;;9.20;100.00;99499.94;4859171;29;20068;-93
2024/03/19 03:18:39;;;;;;;13.10;2.10;;;;;;;9.27;100.00;99503.59;4837094;29;20041;-92
2024/03/19 03:21:11;;;;;;;16.75;2.65;;;;;;;9.22;100.00;99498.78;4841021;29;20045;-92
2024/03/19 03:23:40;;;;;;;17.35;2.08;;;;;;;9.20;100.00;99495.47;4863604;29;20041;-92
2024/03/19 03:26:21;;;;;;;18.40;2.67;;;;;;;9.22;100.00;99497.97;4840195;29;20068;-92
2024/03/19 03:28:54;;;;;;;14.63;2.28;;;;;;;9.22;100.00;99503.25;4850038;29;20040;-91
2024/03/19 03:31:53;;;;;;;11.88;2.42;;;;;;;9.26;100.00;99508.03;4844647;29;20084;-93
2024/03/19 03:34:24;;;;;;;12.85;2.47;;;;;;;9.21;100.00;99501.56;4858799;29;20044;-92
2024/03/19 03:37:06;;;;;;;11.75;2.17;;;;;;;9.22;100.00;99503.25;4849928;29;20068;-94
2024/03/19 03:39:45;;;;;;;19.92;2.33;;;;;;;9.19;100.00;99504.34;4849840;29;20124;-93
2024/03/19 03:42:57;;;;;;;;;;;;;;;;;;;;;
2024/03/19 03:45:29;;;;;;;9.15;2.13;;;;;;;9.22;100.00;99519.06;4862771;29;20044;-93
2024/03/19 03:51:40;;;;;;;15.95;3.08;;;;;;;9.17;100.00;99517.69;4893318;29;20055;-93
2024/03/19 03:54:30;;;;;;;18.55;3.05;;;;;;;9.19;100.00;99530.72;4860988;29;20059;-94
2024/03/19 03:57:24;;;;;;;14.43;2.47;;;;;;;9.14;100.00;99533.03;4855593;29;20115;-93
2024/03/19 04:00:14;;;;;;;9.13;2.00;;;;;;;9.11;100.00;99528.88;4880871;29;20075;-94
2024/03/19 04:04:07;;;;;;;12.98;2.85;;;;;;;9.07;100.00;99540.72;4857720;29;20036;-93
2024/03/19 04:07:08;;;;;;;14.35;2.70;;;;;;;9.02;100.00;99543.84;4867889;29;20052;-93
2024/03/19 04:11:13;;;;;;;13.40;2.45;;;;;;;9.03;100.00;99544.69;4885206;29;20060;-93
2024/03/19 04:14:00;;;;;;;11.23;2.60;;;;;;;9.02;100.00;99549.13;4815132;29;20045;-93
2024/03/19 04:17:11;;;;;;;13.23;3.15;;;;;;;9.03;100.00;99555.22;4841970;29;20054;-94
2024/03/19 04:20:15;;;;;;;15.43;2.63;;;;;;;8.98;100.00;99550.38;4812793;29;20086;-93
2024/03/19 04:23:16;;;;;;;10.27;2.45;;;;;;;8.98;100.00;99553.03;4838485;29;20076;-93
2024/03/19 04:26:33;;;;;;;13.75;2.22;;;;;;;8.97;100.00;99551.38;4875555;29;20492;-93
2024/03/19 04:29:33;;;;;;;15.93;2.10;;;;;;;8.90;100.00;99545.09;4837333;29;20060;-92
2024/03/19 04:32:14;;;;;;;11.55;2.13;;;;;;;8.90;100.00;99556.44;4829678;29;20045;-92
2024/03/19 04:35:18;;;;;;;12.38;2.95;;;;;;;8.81;100.00;99544.19;4845217;29;20049;-93
2024/03/19 04:37:53;;;;;;;11.18;2.50;;;;;;;8.84;100.00;99561.53;4828400;29;20074;-92
2024/03/19 04:40:30;;;;;;;10.75;2.15;;;;;;;8.77;100.00;99564.78;4843271;29;20033;-93
2024/03/19 04:46:52;;;;;;;12.75;2.03;;;;;;;8.66;100.00;99563.19;4845547;29;20049;-93
2024/03/19 04:49:27;;;;;;;10.80;2.15;;;;;;;8.61;100.00;99568.13;4846173;29;20053;-91
2024/03/19 04:52:31;;;;;;;16.23;2.50;;;;;;;8.51;100.00;99562.91;4825849;29;20050;-93
2024/03/19 04:55:02;;;;;;;13.75;2.13;;;;;;;8.47;100.00;99574.75;4828771;29;20060;-93
2024/03/19 04:58:05;;;;;;;13.43;2.20;;;;;;;8.46;100.00;99578.34;4842717;29;20065;-92
2024/03/19 05:01:18;;;;;;;13.38;2.25;;;;;;;8.38;100.00;99592.25;4849287;29;20048;-92
2024/03/19 05:03:54;;;;;;;7.80;1.67;;;;;;;8.35;100.00;99595.19;4881795;29;20040;-93
2024/03/19 05:06:48;;;;;;;8.00;1.70;;;;;;;8.31;100.00;99607.03;4876297;29;20044;-93
2024/03/19 05:09:18;;;;;;;11.85;1.80;;;;;;;8.32;100.00;99614.78;4892759;29;20056;-92
2024/03/19 05:11:51;;;;;;;11.77;1.77;;;;;;;8.37;100.00;99619.59;4883898;29;20048;-92
2024/03/19 05:15:10;;;;;;;12.00;2.08;;;;;;;8.40;100.00;99623.72;4868994;29;20048;-93
2024/03/19 05:17:43;;;;;;;12.02;2.10;;;;;;;8.29;100.00;99622.97;4878609;29;20037;-93
2024/03/19 05:20:18;;;;;;;8.18;1.50;;;;;;;8.31;100.00;99628.09;4871333;29;20041;-92
2024/03/19 05:22:48;;;;;;;10.52;1.33;;;;;;;8.23;100.00;99630.63;4896944;29;20024;-92
2024/03/19 05:25:17;;;;;;;6.60;1.10;;;;;;;8.22;100.00;99634.25;4867010;29;20369;-93
2024/03/19 05:27:55;;;;;;;10.60;1.63;;;;;;;8.34;100.00;99645.38;4865189;29;20037;-92
2024/03/19 05:30:33;;;;;;;5.45;0.95;;;;;;;8.35;100.00;99647.88;4861838;29;20045;-93
2024/03/19 05:33:14;;;;;;;2.97;0.90;;;;;;;8.30;100.00;99653.56;4876746;29;20044;-93
2024/03/19 05:35:59;;;;;;;11.77;1.60;;;;;;;8.29;100.00;99664.25;4894005;29;20044;-93
2024/03/19 05:38:34;;;;;;;10.00;1.20;;;;;;;8.28;100.00;99668.69;4866379;29;20043;-93
2024/03/19 05:42:06;;;;;;;6.53;1.10;;;;;;;8.30;100.00;99669.38;4883589;29;20052;-93
2024/03/19 05:44:42;;;;;;;7.97;1.27;;;;;;;8.24;100.00;99669.13;4867971;29;20072;-93
2024/03/19 05:47:19;;;;;;;13.00;1.67;;;;;;;8.26;100.00;99675.09;4867376;29;20071;-93
2024/03/19 05:49:50;;;;;;;6.60;0.85;;;;;;;8.26;100.00;99681.19;4842794;29;20090;-92
2024/03/19 05:52:25;;;;;;;10.85;1.20;;;;;;;8.37;100.00;99689.84;4850885;29;20056;-93
2024/03/19 05:58:10;;;;;;;8.35;1.48;;;;;;;8.44;100.00;99675.94;4852199;29;20372;-92
2024/03/19 06:00:59;;;;;;;10.20;1.70;;;;;;;8.44;100.00;99678.56;4862406;29;20045;-92
2024/03/19 06:03:48;;;;;;;8.93;2.17;;;;;;;8.44;100.00;99675.13;4856798;29;20045;-93
2024/03/19 06:06:18;;;;;;;10.95;1.30;;;;;;;8.49;100.00;99687.84;4863944;29;20080;-93
2024/03/19 06:08:50;;;;;;;7.95;1.30;;;;;;;8.46;100.00;99693.41;4867594;29;20526;-92
2024/03/19 06:11:29;;;;;;;11.07;1.52;;;;;;;8.47;100.00;99698.53;4849258;29;20041;-93
2024/03/19 06:14:00;;;;;;;11.40;1.45;;;;;;;8.45;100.00;99703.09;4846188;29;20134;-93
2024/03/19 06:16:43;;;;;;;10.00;1.42;;;;;;;8.47;100.00;99710.84;4851363;29;20033;-92
2024/03/19 06:19:17;;;;;;;5.72;1.30;;;;;;;8.49;100.00;99709.72;4863741;29;20345;-92
2024/03/19 06:21:54;;;;;;;8.65;1.30;;;;;;;8.49;100.00;99714.19;4863541;29;20041;-93
2024/03/19 06:24:23;;;;;;;7.07;1.45;;;;;;;8.51;100.00;99709.56;4848938;29;20041;-93
2024/03/19 06:26:52;;;;;;;12.85;1.67;;;;;;;8.50;100.00;99718.47;4862281;29;20429;-92
2024/03/19 06:29:24;;;;;;;11.75;1.58;;;;;;;8.46;100.00;99719.75;4846642;29;20037;-92
2024/03/19 06:31:56;;;;;;;18.33;2.33;;;;;;;8.49;100.00;99725.53;4859644;29;20120;-92
2024/03/19 06:34:32;;;;;;;9.20;1.80;;;;;;;8.47;100.00;99738.03;4861146;29;20041;-92
2024/03/19 06:36:59;;;;;;;10.63;1.70;;;;;;;8.42;100.00;99746.38;4863902;29;20132;-92
2024/03/19 06:39:26;;;;;;;11.30;2.15;;;;;;;8.37;100.00;99738.09;4860787;29;20125;-92
2024/03/19 06:42:02;;;;;;;8.02;1.83;;;;;;;8.35;100.00;99739.19;4841208;29;20052;-91
2024/03/19 06:44:31;;;;;;;10.63;2.08;;;;;;;8.38;100.00;99752.06;4851391;29;20132;-92
2024/03/19 06:47:13;;;;;;;6.95;1.60;;;;;;;8.42;100.00;99762.19;4894570;29;20033;-92
2024/03/19 06:50:01;;;;;;;13.73;2.10;;;;;;;8.42;100.00;99770.06;4862779;29;20128;-93
2024/03/19 06:52:38;;;;;;;12.68;2.00;;;;;;;8.50;100.00;99777.25;4861987;29;20052;-92
2024/03/19 06:58:44;;;;;;;15.38;2.70;;;;;;;8.54;100.00;99794.44;4868511;29;20044;-92
2024/03/19 07:01:41;;;;;;;8.90;2.45;;;;;;;8.48;100.00;99796.78;4876317;29;20045;-92
2024/03/19 07:04:49;;;;;;;13.07;2.67;;;;;;;8.54;100.00;99806.72;4855223;29;20048;-93
2024/03/19 07:07:37;;;;;;;;;;;;;;;;;;;;;
2024/03/19 07:10:35;;;;;;;13.75;2.08;;;;;;;8.47;100.00;99816.19;4877003;29;20536;-92
2024/03/19 07:13:01;;;;;;;11.57;2.03;;;;;;;8.44;100.00;99815.50;4847327;29;20036;-92
2024/03/19 07:15:38;;;;;;;15.43;2.45;;;;;;;8.53;100.00;99823.53;4869501;29;20511;-91
2024/03/19 07:22:52;;;;;;;;;;;;;;;;;;;;;
2024/03/19 07:38:17;;;;;;;10.93;2.40;;;;;;;8.72;100.00;99872.69;4813858;29;20068;-92
2024/03/19 07:41:40;;;;;;;8.30;2.50;;;;;;;8.83;100.00;99870.81;4860714;29;20044;-93
2024/03/19 07:48:25;;;;;;;13.05;3.03;;;;;;;8.83;100.00;99863.75;4863263;29;20044;-94
2024/03/19 07:51:45;;;;;;;10.05;2.97;;;;;;;8.88;100.00;99879.94;4857645;29;20040;-93
2024/03/19 07:54:28;;;;;;;;;;;;;;;;;;;;;
2024/03/19 07:57:22;;;;;;;24.02;3.40;;;;;;;8.90;100.00;99896.44;4859327;29;20048;-92
2024/03/19 08:00:05;;;;;;;12.70;3.47;;;;;;;8.87;100.00;99893.28;4863008;29;20036;-92
2024/03/19 08:02:48;;;;;;;14.52;3.15;;;;;;;8.93;100.00;99901.41;4847003;29;20060;-92
2024/03/19 08:05:14;;;;;;;16.63;3.53;;;;;;;8.92;100.00;99891.00;4847700;29;20037;-92
2024/03/19 08:08:12;;;;;;;12.77;3.33;;;;;;;9.16;100.00;99908.06;4847043;29;20037;-93
2024/03/19 08:11:11;;;;;;;14.98;3.47;;;;;;;9.33;100.00;99918.81;4868638;29;20131;-92
2024/03/19 08:14:07;;;;;;;21.58;3.97;;;;;;;9.42;100.00;99923.19;4852589;29;20036;-92
2024/03/19 08:16:55;;;;;;;14.48;3.58;;;;;;;9.57;100.00;99931.44;4852398;29;20043;-92
2024/03/19 08:19:43;;;;;;;15.32;2.85;;;;;;;9.70;100.00;99922.31;4843620;29;20094;-92
2024/03/19 08:25:14;;;;;;;12.98;3.00;;;;;;;9.83;100.00;99917.44;4842338;29;20045;-92
2024/03/19 08:27:43;;;;;;;17.48;4.03;;;;;;;9.88;100.00;99909.91;4843213;29;20052;-92
2024/03/19 08:30:20;;;;;;;14.88;3.63;;;;;;;9.97;100.00;99918.72;4856129;29;20037;-92
2024/03/19 08:32:54;;;;;;;24.13;4.03;;;;;;;9.97;100.00;99926.63;4854475;29;20147;-91
2024/03/19 08:35:26;;;;;;;12.10;3.40;;;;;;;9.99;100.00;99929.13;4864859;29;20120;-92
2024/03/19 08:37:56;;;;;;;11.50;3.30;;;;;;;10.13;100.00;99940.97;4861487;29;20048;-92
2024/03/19 08:40:32;;;;;;;14.63;3.58;;;;;;;10.23;100.00;99936.41;4847389;29;20041;-92
2024/03/19 08:43:08;;;;;;;13.05;2.70;;;;;;;10.39;100.00;99950.69;4851010;29;20040;-92
2024/03/19 08:45:41;;;;;;;14.23;3.90;;;;;;;10.39;100.00;99954.16;4868449;29;20106;-91
2024/03/19 08:48:33;;;;;;;16.42;3.60;;;;;;;10.35;100.00;99952.81;4861046;29;20048;-92
2024/03/19 08:51:02;;;;;;;11.57;4.18;;;;;;;10.43;100.00;99960.78;4865415;29;20534;-92
2024/03/19 08:53:32;;;;;;;11.73;3.65;;;;;;;10.47;100.00;99968.44;4868603;29;20119;-91
2024/03/19 08:56:02;;;;;;;13.60;3.88;;;;;;;10.40;100.00;99965.56;4851296;29;20555;-92
2024/03/19 08:58:32;;;;;;;19.45;4.38;;;;;;;10.40;100.00;99957.66;4855328;29;20033;-92
2024/03/19 09:01:02;;;;;;;14.60;3.55;;;;;;;10.41;100.00;99969.88;4865297;29;20055;-93
2024/03/19 09:07:28;;;;;;;16.58;3.28;;;;;;;10.28;100.00;99976.38;4843131;29;20049;-93
2024/03/19 09:10:22;;;;;;;11.35;3.92;;;;;;;10.28;100.00;99980.84;4816800;29;20051;-93
2024/03/19 09:12:49;;;;;;;10.40;3.53;;;;;;;10.28;100.00;99980.84;4832252;29;20041;-92
2024/03/19 09:15:39;;;;;;;15.45;3.63;;;;;;;10.42;100.00;99980.28;4859718;29;20109;-92
2024/03/19 09:18:30;;;;;;;;;;;;;;;;;;;;;
2024/03/19 09:21:12;;;;;;;18.48;3.70;;;;;;;10.61;100.00;99985.53;4860874;29;20037;-92
2024/03/19 09:23:52;;;;;;;16.95;3.33;;;;;;;10.77;100.00;99979.50;4844356;29;20053;-92
2024/03/19 09:30:49;;;;;;;14.00;3.13;;;;;;;11.07;100.00;99982.63;4845786;29;20163;-91
2024/03/19 09:33:34;;;;;;;12.85;3.25;;;;;;;11.17;100.00;99979.84;4860412;29;20064;-92
2024/03/19 09:36:20;;;;;;;10.45;3.15;;;;;;;11.13;100.00;99981.19;4865277;29;20190;-92
2024/03/19 09:39:22;;;;;;;11.27;3.15;;;;;;;11.25;100.00;99990.47;4858731;29;20531;-92
2024/03/19 09:46:13;;;;;;;12.15;3.00;;;;;;;11.36;100.00;99980.56;4860690;29;20067;-92
2024/03/19 09:53:28;;;;;;;16.55;3.92;;;;;;;11.66;100.00;100007.44;4890007;29;20055;-91
2024/03/19 10:00:06;;;;;;;15.80;2.92;;;;;;;11.47;100.00;100022.63;4827347;29;20187;-92
2024/03/19 10:03:10;;;;;;;10.65;2.75;;;;;;;11.50;100.00;100013.53;4818013;29;20052;-92
2024/03/19 10:10:47;;;;;;;10.52;2.55;;;;;;;11.39;100.00;100012.84;4824061;29;20076;-92
2024/03/19 10:14:27;;;;;;;10.05;2.70;;;;;;;11.52;100.00;100015.03;4779857;30;20149;-91
2024/03/19 10:17:29;;;;;;;10.82;2.53;;;;;;;11.71;100.00;100025.50;4838429;29;20141;-92
2024/03/19 10:24:36;;;;;;;14.15;2.95;;;;;;;11.71;100.00;100022.84;4866686;29;20409;-92
2024/03/19 10:28:14;;;;;;;;;;;;;;;;;;;;;
2024/03/19 10:31:29;;;;;;;;;;;;;;;11.58;100.00;100039.22;4858455;29;20540;-92
2024/03/19 10:34:41;;;;;;;9.02;1.92;;;;;;;11.60;100.00;100040.69;4864206;29;20429;-91
2024/03/19 10:37:55;;;;;;;8.30;2.10;;;;;;;11.57;100.00;100043.66;4851557;29;20076;-91
2024/03/19 10:40:48;;;;;;;10.85;3.22;;;;;;;11.51;100.00;100039.84;4859013;29;20037;-91
2024/03/19 10:43:31;;;;;;;13.35;3.20;;;;;;;11.47;100.00;100035.84;4839638;29;20048;-91
2024/03/19 10:46:52;;;;;;;6.63;2.40;;;;;;;11.53;100.00;100047.63;4885707;29;20044;-91
2024/03/19 10:49:32;;;;;;;11.63;2.33;;;;;;;11.58;100.00;100045.31;4848152;29;20044;-92
2024/03/19 10:52:33;;;;;;;7.85;2.25;;;;;;;11.71;100.00;100046.66;4863924;29;20044;-91
2024/03/19 10:55:22;;;;;;;18.85;2.42;;;;;;;11.72;100.00;100041.22;4872150;29;20028;-91
2024/03/19 10:58:22;;;;;;;9.95;2.35;;;;;;;11.78;100.00;100037.09;4860339;29;20103;-91
2024/03/19 11:05:44;;;;;;;;;;;;;;;;;;;;;
2024/03/19 11:12:17;;;;;;;6.43;1.60;;;;;;;12.10;100.00;100042.66;4891033;29;20048;-92
2024/03/19 11:15:53;;;;;;;;;;;;;;;;;;;;;
2024/03/19 11:24:19;;;;;;;5.88;2.03;;;;;;;12.27;100.00;100059.38;4801676;29;20042;-91
2024/03/19 11:27:44;;;;;;;;;;;;;;;;;;;;;
2024/03/19 11:31:08;;;;;;;8.10;1.80;;;;;;;12.25;100.00;100066.66;4839960;29;20077;-90
2024/03/19 11:33:47;;;;;;;4.82;1.83;;;;;;;12.26;100.00;100071.78;4836018;29;20045;-90
2024/03/19 11:36:19;;;;;;;4.45;1.33;;;;;;;12.18;100.00;100074.44;4825305;29;20057;-91
2024/03/19 11:46:09;;;;;;;7.78;1.90;;;;;;;11.98;100.00;100066.75;4829122;29;20182;-92
2024/03/19 11:52:38;;;;;;;5.32;1.65;;;;;;;12.12;100.00;100070.63;4854427;29;20049;-91
2024/03/19 11:55:43;;;;;;;5.65;1.42;;;;;;;12.09;100.00;100062.19;4842275;29;20488;-92
2024/03/19 11:59:44;;;;;;;6.53;2.38;;;;;;;12.21;100.00;100068.81;4834091;29;20396;-91
2024/03/19 12:02:53;;;;;;;6.20;1.30;;;;;;;12.22;100.00;100069.63;4856619;29;20504;-91
2024/03/19 12:05:56;;;;;;;;;;;;;;;;;;;;;
2024/03/19 12:12:43;;;;;;;5.55;0.70;;;;;;;12.31;100.00;100075.78;4877573;29;20123;-91
2024/03/19 12:16:00;;;;;;;6.95;3.10;;;;;;;12.42;100.00;100080.75;4837228;29;20045;-90
2024/03/19 12:22:21;;;;;;;6.43;3.13;;;;;;;12.50;100.00;100091.34;4819279;29;20050;-91
2024/03/19 12:51:55;;;;;;;6.80;1.10;;;;;;;12.65;100.00;100094.16;4769547;30;20085;-91
2024/03/19 13:26:15;;;;;;;7.20;3.03;;;;;;;13.06;100.00;100078.34;4748235;30;20054;-92
2024/03/19 13:30:07;;;;;;;;;;;;;;;;;;;;;
2024/03/19 13:41:57;;;;;;;;;;;;;;;;;;;;;
2024/03/19 13:46:19;;;;;;;4.50;0.70;;;;;;;13.37;100.00;100064.31;4798539;29;20045;-92
2024/03/19 16:04:46;;;;;;;14.60;4.18;;;;;;;13.43;100.00;100079.56;5859789;23;20256;-83
2024/03/19 16:33:27;;;;;;;10.40;3.28;;;;;;;13.58;100.00;100082.34;4542934;27;20117;-84
2024/03/19 16:36:20;;;;;;;10.00;4.10;;;;;;;13.59;100.00;100085.81;4836056;29;20345;-83
2024/03/19 16:38:50;;;;;;;8.38;2.45;;;;;;;13.56;100.00;100091.47;4820078;29;20057;-82
2024/03/19 16:41:16;;;;;;;10.93;5.85;;;;;;;13.45;100.00;100079.38;4804341;29;20046;-83
2024/03/19 16:44:06;;;;;;;8.13;2.50;;;;;;;13.47;100.00;100082.69;4839279;29;20042;-84
2024/03/19 16:46:32;;;;;;;8.68;2.42;;;;;;;13.37;100.00;100086.38;4821621;29;20045;-90
2024/03/19 16:48:58;;;;;;;6.80;2.42;;;;;;;13.34;100.00;100085.91;4807247;29;20045;-89
2024/03/19 17:08:33;;;;;;;6.20;2.50;;;;;;;13.15;100.00;100091.41;4856821;29;20039;-92
2024/03/19 17:15:56;;;;;;;11.68;2.78;;;;;;;13.06;100.00;100087.13;4859617;29;20047;-93
2024/03/19 17:18:24;;;;;;;11.55;3.08;;;;;;;12.95;100.00;100090.16;4858483;29;20041;-90
2024/03/19 17:25:15;;;;;;;6.63;2.80;;;;;;;12.83;100.00;100106.41;4800680;29;20064;-92
2024/03/19 17:27:45;;;;;;;6.78;2.63;;;;;;;12.81;100.00;100096.94;4821569;29;20045;-91
2024/03/19 17:43:57;;;;;;;8.45;2.80;;;;;;;12.50;100.00;100099.28;4860898;29;20145;-90
2024/03/19 18:16:04;;;;;;;20.00;6.03;;;;;;;11.94;100.00;100123.72;4871707;29;20042;-92
2024/03/19 18:19:04;;;;;;;20.80;6.50;;;;;;;11.90;100.00;100127.66;4830754;29;20477;-86
2024/03/19 18:21:34;;;;;;;18.13;6.28;;;;;;;11.91;100.00;100129.34;4809640;29;20401;-91
2024/03/19 18:24:09;;;;;;;18.50;6.93;;;;;;;11.87;100.00;100128.81;4843629;29;20511;-93
2024/03/19 18:27:04;;;;;;;15.85;6.15;;;;;;;11.82;100.00;100135.59;4834333;29;20068;-94
2024/03/19 18:29:30;;;;;;;15.15;6.28;;;;;;;11.78;100.00;100129.78;4835481;29;20412;-92
2024/03/19 18:31:56;;;;;;;19.40;6.68;;;;;;;11.80;100.00;100130.47;4824680;29;20036;-85
2024/03/19 18:34:39;;;;;;;19.42;6.57;;;;;;;11.80;100.00;100133.09;4828891;29;20042;-91
2024/03/19 18:37:11;;;;;;;23.17;6.97;;;;;;;11.71;100.00;100137.53;4841512;29;20057;-92
2024/03/19 18:44:22;;;;;;;17.00;5.35;;;;;;;11.67;100.00;100141.50;4822764;29;20065;-92
2024/03/19 18:47:06;;;;;;;;;;;;;;;11.57;100.00;100146.91;4819451;29;20049;-92
2024/03/19 18:49:45;;;;;;;16.03;5.60;;;;;;;11.55;100.00;100140.94;4794592;29;19916;-92
2024/03/19 18:56:06;;;;;;;12.88;5.75;;;;;;;11.56;100.00;100150.53;4824237;29;20533;-92
2024/03/19 19:01:34;;;;;;;22.73;6.38;;;;;;;11.50;100.00;100154.63;4849428;29;20046;-93
2024/03/19 19:04:50;;;;;;;16.83;6.22;;;;;;;11.48;100.00;100156.59;4836427;29;20548;-92
2024/03/19 19:08:08;;;;;;;21.15;6.80;;;;;;;11.49;100.00;100160.94;4797971;29;20872;-92
2024/03/19 19:11:07;;;;;;;15.88;5.75;;;;;;;11.43;100.00;100163.38;4787044;29;20085;-92
2024/03/19 19:13:45;;;;;;;24.27;6.40;;;;;;;11.36;100.00;100171.09;4788854;29;20054;-92
2024/03/19 19:16:37;;;;;;;26.30;6.15;;;;;;;11.33;100.00;100158.16;4805157;29;20168;-92
2024/03/19 19:19:56;;;;;;;15.63;6.05;;;;;;;11.32;100.00;100167.09;4840459;29;20069;-93
2024/03/19 19:26:37;;;;;;;15.48;5.60;;;;;;;11.31;100.00;100181.34;4804448;29;20046;-93
2024/03/19 19:29:31;;;;;;;13.63;6.57;;;;;;;11.24;100.00;100183.75;4811375;29;20038;-92
2024/03/19 19:33:33;;;;;;;;;;;;;;;;;;;;;
2024/03/19 19:40:38;;;;;;;18.70;5.80;;;;;;;10.98;100.00;100185.41;4797072;29;20500;-93
2024/03/19 19:44:04;;;;;;;;;;;;;;;;;;;;;
2024/03/19 19:47:22;;;;;;;;;;;;;;;;;;;;;
2024/03/19 19:51:11;;;;;;;17.70;4.93;;;;;;;10.89;100.00;100197.72;4804030;29;20054;-93
2024/03/19 19:53:55;;;;;;;20.92;6.57;;;;;;;10.77;100.00;100197.13;4719969;30;20143;-93
2024/03/19 19:56:26;;;;;;;21.83;6.10;;;;;;;10.73;100.00;100198.44;4726455;30;20044;-93
2024/03/19 19:59:06;;;;;;;15.55;6.00;;;;;;;10.77;100.00;100199.78;4770872;29;20047;-92
2024/03/19 20:01:59;;;;;;;21.70;6.65;;;;;;;10.68;100.00;100205.97;4801400;29;20083;-94
2024/03/19 20:04:54;;;;;;;18.95;5.03;;;;;;;10.65;100.00;100204.44;4796567;29;20076;-94
2024/03/19 20:11:34;;;;;;;17.60;5.85;;;;;;;10.54;100.00;100220.53;4821858;29;20089;-94
2024/03/19 20:14:12;;;;;;;;;;;;;;;10.46;100.00;100212.50;4823817;29;20137;-94
2024/03/19 20:17:45;;;;;;;17.77;5.82;;;;;;;10.46;100.00;100213.38;4854664;29;19968;-94
2024/03/19 20:21:12;;;;;;;19.80;6.15;;;;;;;10.47;100.00;100211.53;4838755;29;20122;-93
2024/03/19 20:32:10;;;;;;;19.80;6.22;;;;;;;10.36;100.00;100212.53;4816060;29;20121;-93
2024/03/19 20:34:46;;;;;;;20.48;8.27;;;;;;;10.38;100.00;100219.34;4821015;29;20692;-93
2024/03/19 20:37:17;;;;;;;18.70;6.85;;;;;;;10.39;100.00;100226.31;4793718;29;20064;-93
2024/03/19 20:40:26;;;;;;;21.75;7.35;;;;;;;10.42;100.00;100235.72;4810208;29;20086;-93
2024/03/19 20:43:33;;;;;;;21.70;7.25;;;;;;;10.31;100.00;100226.19;4795298;29;20423;-94